createdAt,value
2022-08-23T00:00:40.862Z,1.40
2022-08-23T00:01:44.424Z,1.33
2022-08-23T00:02:48.305Z,1.48
2022-08-23T00:03:50.604Z,1.77
2022-08-23T00:05:07.438Z,1.70
2022-08-23T00:06:11.254Z,1.70
2022-08-23T00:07:13.497Z,1.52
2022-08-23T00:08:15.144Z,1.60
2022-08-23T00:09:17.331Z,1.70
2022-08-23T00:10:18.781Z,1.60
2022-08-23T00:11:40.414Z,1.65
2022-08-23T00:12:42.072Z,1.98
2022-08-23T00:13:47.223Z,1.60
2022-08-23T00:14:53.724Z,1.40
2022-08-23T00:15:55.508Z,1.73
2022-08-23T00:16:57.645Z,1.70
2022-08-23T00:18:00.455Z,1.77
2022-08-23T00:19:03.331Z,1.58
2022-08-23T00:20:08.394Z,1.77
2022-08-23T00:21:09.830Z,1.63
2022-08-23T00:22:11.481Z,2.00
2022-08-23T00:23:12.886Z,1.80
2022-08-23T00:24:15.000Z,1.75
2022-08-23T00:25:16.640Z,1.70
2022-08-23T00:26:20.479Z,1.80
2022-08-23T00:27:21.866Z,1.42
2022-08-23T00:28:23.216Z,1.70
2022-08-23T00:29:26.061Z,2.03
2022-08-23T00:30:27.716Z,1.48
2022-08-23T00:31:29.146Z,1.60
2022-08-23T00:32:32.076Z,1.70
2022-08-23T00:33:33.502Z,1.70
2022-08-23T00:34:35.398Z,1.70
2022-08-23T00:35:36.815Z,1.40
2022-08-23T00:36:38.659Z,1.80
2022-08-23T00:37:40.526Z,1.52
2022-08-23T00:38:42.098Z,1.60
2022-08-23T00:39:44.936Z,1.90
2022-08-23T00:40:47.418Z,1.70
2022-08-23T00:41:49.226Z,1.50
2022-08-23T00:43:22.484Z,1.73
2022-08-23T00:44:52.645Z,2.20
2022-08-23T00:46:21.487Z,1.55
2022-08-23T00:47:40.904Z,1.65
2022-08-23T00:48:42.367Z,1.73
2022-08-23T00:49:45.413Z,1.80
2022-08-23T00:50:51.642Z,1.80
2022-08-23T00:52:09.788Z,1.63
2022-08-23T00:53:17.634Z,1.55
2022-08-23T00:54:19.848Z,1.65
2022-08-23T00:55:21.564Z,1.52
2022-08-23T00:56:24.392Z,1.70
2022-08-23T00:57:27.471Z,1.58
2022-08-23T00:58:29.515Z,1.77
2022-08-23T00:59:31.322Z,1.73
2022-08-23T01:00:32.923Z,1.70
2022-08-23T01:01:34.651Z,1.55
2022-08-23T01:02:36.245Z,1.98
2022-08-23T01:03:39.266Z,1.50
2022-08-23T01:04:44.333Z,1.70
2022-08-23T01:05:56.298Z,1.70
2022-08-23T01:07:16.043Z,1.70
2022-08-23T01:08:17.926Z,1.50
2022-08-23T01:09:21.032Z,1.67
2022-08-23T01:10:42.857Z,1.75
2022-08-23T01:11:57.305Z,1.67
2022-08-23T01:13:09.071Z,1.65
2022-08-23T01:14:13.119Z,1.70
2022-08-23T01:15:21.232Z,2.03
2022-08-23T01:16:25.699Z,2.22
2022-08-23T01:17:29.853Z,2.20
2022-08-23T01:18:31.589Z,1.50
2022-08-23T01:19:36.088Z,1.50
2022-08-23T01:20:44.029Z,1.80
2022-08-23T01:21:48.942Z,1.75
2022-08-23T01:23:01.978Z,1.95
2022-08-23T01:24:04.422Z,1.50
2022-08-23T01:25:09.101Z,1.52
2022-08-23T01:26:21.715Z,1.50
2022-08-23T01:27:24.474Z,1.60
2022-08-23T01:28:26.064Z,1.50
2022-08-23T01:29:27.502Z,1.70
2022-08-23T01:30:32.460Z,1.40
2022-08-23T01:31:35.104Z,1.80
2022-08-23T01:32:38.374Z,1.73
2022-08-23T01:33:40.322Z,1.63
2022-08-23T01:34:45.407Z,1.65
2022-08-23T01:35:55.909Z,1.40
2022-08-23T01:36:58.326Z,1.67
2022-08-23T01:37:59.812Z,1.60
2022-08-23T01:39:02.156Z,1.48
2022-08-23T01:40:04.290Z,1.58
2022-08-23T01:41:06.907Z,1.52
2022-08-23T01:42:08.456Z,1.77
2022-08-23T01:43:10.231Z,1.60
2022-08-23T01:44:11.902Z,1.58
2022-08-23T01:45:14.582Z,1.25
2022-08-23T01:46:20.192Z,1.70
2022-08-23T01:47:21.565Z,1.63
2022-08-23T01:48:23.595Z,1.50
2022-08-23T01:49:25.470Z,1.73
2022-08-23T01:50:27.799Z,1.60
2022-08-23T01:51:29.901Z,2.00
2022-08-23T01:52:31.467Z,1.73
2022-08-23T01:53:33.414Z,2.00
2022-08-23T01:54:34.776Z,1.70
2022-08-23T01:55:36.450Z,1.75
2022-08-23T01:56:39.409Z,1.88
2022-08-23T01:57:48.253Z,2.00
2022-08-23T01:58:50.773Z,1.77
2022-08-23T01:59:52.158Z,1.73
2022-08-23T02:00:53.686Z,1.50
2022-08-23T02:01:55.195Z,1.65
2022-08-23T02:02:57.716Z,1.70
2022-08-23T02:04:04.541Z,1.73
2022-08-23T02:05:06.619Z,2.42
2022-08-23T02:06:08.367Z,1.88
2022-08-23T02:07:09.949Z,1.88
2022-08-23T02:08:31.239Z,1.50
2022-08-23T02:09:34.078Z,1.90
2022-08-23T02:10:37.362Z,1.90
2022-08-23T02:11:41.367Z,1.63
2022-08-23T02:12:42.737Z,1.75
2022-08-23T02:13:50.337Z,1.73
2022-08-23T02:14:51.826Z,1.50
2022-08-23T02:15:58.372Z,1.80
2022-08-23T02:17:03.601Z,1.73
2022-08-23T02:18:06.707Z,1.77
2022-08-23T02:19:09.711Z,1.60
2022-08-23T02:20:11.915Z,1.92
2022-08-23T02:21:13.337Z,1.55
2022-08-23T02:22:14.728Z,2.00
2022-08-23T02:23:16.428Z,1.67
2022-08-23T02:24:23.305Z,1.90
2022-08-23T02:25:25.962Z,1.73
2022-08-23T02:26:31.221Z,1.50
2022-08-23T02:27:32.943Z,1.70
2022-08-23T02:28:34.590Z,1.80
2022-08-23T02:29:39.451Z,1.88
2022-08-23T02:30:44.384Z,1.60
2022-08-23T02:31:47.117Z,1.75
2022-08-23T02:32:48.468Z,1.58
2022-08-23T02:35:09.110Z,1.60
2022-08-23T02:36:10.932Z,1.63
2022-08-23T02:37:14.264Z,1.60
2022-08-23T02:38:15.754Z,1.80
2022-08-23T02:39:17.933Z,1.98
2022-08-23T02:40:19.730Z,1.60
2022-08-23T02:41:21.815Z,1.70
2022-08-23T02:42:23.606Z,1.70
2022-08-23T02:43:25.035Z,1.80
2022-08-23T02:44:26.536Z,1.67
2022-08-23T02:45:30.726Z,1.80
2022-08-23T02:46:32.152Z,1.90
2022-08-23T02:47:33.590Z,1.85
2022-08-23T02:48:50.937Z,1.92
2022-08-23T02:49:53.645Z,1.75
2022-08-23T02:50:58.491Z,1.80
2022-08-23T02:51:59.941Z,1.50
2022-08-23T02:53:01.626Z,1.60
2022-08-23T02:54:04.434Z,1.75
2022-08-23T02:55:06.507Z,1.40
2022-08-23T02:56:17.071Z,1.63
2022-08-23T02:57:23.244Z,1.55
2022-08-23T02:58:26.338Z,1.70
2022-08-23T02:59:27.919Z,2.00
2022-08-23T03:00:29.355Z,1.80
2022-08-23T03:01:33.254Z,1.60
2022-08-23T03:02:46.274Z,1.80
2022-08-23T03:03:47.808Z,1.60
2022-08-23T03:04:49.473Z,1.60
2022-08-23T03:05:50.975Z,1.90
2022-08-23T03:06:54.131Z,1.88
2022-08-23T03:07:56.094Z,1.70
2022-08-23T03:08:57.789Z,1.80
2022-08-23T03:09:59.226Z,1.60
2022-08-23T03:11:01.658Z,1.98
2022-08-23T03:12:11.546Z,1.90
2022-08-23T03:13:18.308Z,1.60
2022-08-23T03:14:22.316Z,1.67
2022-08-23T03:15:24.071Z,1.80
2022-08-23T03:16:25.584Z,1.70
2022-08-23T03:17:27.200Z,1.40
2022-08-23T03:18:28.786Z,1.67
2022-08-23T03:19:32.898Z,1.60
2022-08-23T03:20:35.593Z,1.40
2022-08-23T03:21:38.455Z,1.60
2022-08-23T03:22:40.264Z,1.70
2022-08-23T03:23:51.651Z,1.98
2022-08-23T03:24:53.292Z,1.55
2022-08-23T03:25:58.267Z,1.60
2022-08-23T03:27:03.452Z,1.58
2022-08-23T03:28:05.748Z,1.50
2022-08-23T03:29:09.642Z,1.63
2022-08-23T03:30:25.246Z,2.00
2022-08-23T03:31:32.195Z,1.80
2022-08-23T03:32:39.944Z,1.50
2022-08-23T03:33:51.420Z,1.58
2022-08-23T03:34:53.217Z,1.58
2022-08-23T03:35:58.311Z,1.63
2022-08-23T03:37:00.598Z,1.60
2022-08-23T03:38:02.197Z,2.17
2022-08-23T03:39:04.385Z,2.00
2022-08-23T03:40:07.940Z,2.00
2022-08-23T03:41:09.405Z,1.75
2022-08-23T03:42:10.813Z,1.50
2022-08-23T03:43:12.176Z,1.50
2022-08-23T03:44:13.646Z,1.70
2022-08-23T03:45:18.400Z,2.10
2022-08-23T03:46:25.761Z,1.70
2022-08-23T03:47:31.811Z,1.77
2022-08-23T03:48:33.325Z,1.70
2022-08-23T03:49:34.700Z,1.85
2022-08-23T03:50:36.127Z,1.77
2022-08-23T03:51:38.086Z,1.50
2022-08-23T03:52:39.464Z,1.67
2022-08-23T03:53:40.872Z,1.60
2022-08-23T03:54:42.296Z,1.90
2022-08-23T03:55:46.629Z,1.80
2022-08-23T03:56:55.537Z,1.67
2022-08-23T03:57:57.906Z,1.92
2022-08-23T03:59:01.657Z,1.90
2022-08-23T04:00:04.110Z,1.42
2022-08-23T04:01:15.633Z,1.70
2022-08-23T04:02:17.115Z,1.80
2022-08-23T04:03:18.599Z,1.70
2022-08-23T04:04:34.952Z,1.50
2022-08-23T04:06:05.553Z,1.50
2022-08-23T04:07:07.338Z,1.60
2022-08-23T04:08:10.155Z,1.40
2022-08-23T04:09:15.341Z,1.58
2022-08-23T04:10:17.553Z,1.75
2022-08-23T04:11:23.523Z,1.70
2022-08-23T04:12:31.582Z,1.60
2022-08-23T04:13:32.948Z,1.60
2022-08-23T04:14:36.376Z,1.52
2022-08-23T04:15:37.826Z,1.77
2022-08-23T04:16:40.809Z,1.88
2022-08-23T04:17:42.862Z,1.80
2022-08-23T04:18:45.066Z,1.60
2022-08-23T04:19:47.674Z,1.60
2022-08-23T04:20:49.628Z,1.73
2022-08-23T04:21:55.232Z,1.77
2022-08-23T04:22:58.282Z,1.77
2022-08-23T04:24:02.168Z,2.30
2022-08-23T04:25:04.137Z,1.75
2022-08-23T04:26:11.968Z,1.60
2022-08-23T04:27:15.108Z,1.95
2022-08-23T04:28:17.304Z,1.70
2022-08-23T04:29:33.582Z,1.60
2022-08-23T04:30:36.351Z,1.67
2022-08-23T04:31:39.292Z,1.63
2022-08-23T04:32:42.770Z,1.80
2022-08-23T04:33:45.545Z,1.60
2022-08-23T04:34:53.719Z,1.90
2022-08-23T04:35:55.356Z,1.55
2022-08-23T04:36:57.382Z,1.63
2022-08-23T04:37:58.806Z,1.60
2022-08-23T04:39:01.052Z,1.73
2022-08-23T04:40:21.613Z,1.70
2022-08-23T04:41:41.879Z,1.50
2022-08-23T04:42:44.451Z,1.30
2022-08-23T04:43:46.659Z,1.95
2022-08-23T04:44:49.338Z,1.60
2022-08-23T04:45:51.236Z,1.50
2022-08-23T04:47:02.245Z,1.70
2022-08-23T04:48:03.847Z,1.75
2022-08-23T04:49:05.927Z,1.90
2022-08-23T04:50:08.135Z,1.77
2022-08-23T04:51:10.613Z,1.48
2022-08-23T04:52:19.052Z,1.70
2022-08-23T04:53:22.094Z,1.67
2022-08-23T04:54:33.511Z,1.73
2022-08-23T04:55:52.090Z,1.60
2022-08-23T04:56:53.605Z,1.42
2022-08-23T04:57:56.901Z,1.67
2022-08-23T04:59:00.926Z,1.60
2022-08-23T05:00:04.478Z,1.40
2022-08-23T05:01:07.859Z,1.90
2022-08-23T05:02:09.309Z,1.48
2022-08-23T05:03:10.784Z,1.70
2022-08-23T05:04:12.850Z,1.70
2022-08-23T05:05:14.764Z,1.88
2022-08-23T05:06:18.969Z,1.60
2022-08-23T05:07:20.301Z,1.88
2022-08-23T05:08:34.296Z,1.80
2022-08-23T05:09:36.642Z,2.00
2022-08-23T05:10:38.309Z,1.83
2022-08-23T05:11:40.202Z,1.50
2022-08-23T05:12:42.185Z,1.60
2022-08-23T05:13:44.463Z,1.67
2022-08-23T05:14:47.894Z,1.63
2022-08-23T05:15:50.535Z,1.48
2022-08-23T05:16:54.312Z,1.80
2022-08-23T05:17:56.858Z,1.63
2022-08-23T05:18:58.663Z,1.77
2022-08-23T05:20:00.074Z,1.75
2022-08-23T05:21:01.579Z,1.77
2022-08-23T05:22:02.956Z,1.60
2022-08-23T05:23:25.949Z,1.70
2022-08-23T05:24:37.932Z,1.65
2022-08-23T05:25:52.960Z,1.40
2022-08-23T05:27:13.916Z,1.67
2022-08-23T05:28:16.357Z,1.58
2022-08-23T05:29:17.735Z,1.50
2022-08-23T05:30:23.396Z,1.77
2022-08-23T05:31:26.693Z,1.80
2022-08-23T05:32:33.654Z,1.80
2022-08-23T05:33:35.641Z,1.70
2022-08-23T05:34:37.316Z,1.75
2022-08-23T05:35:44.272Z,1.75
2022-08-23T05:36:48.348Z,1.75
2022-08-23T05:38:00.413Z,1.33
2022-08-23T05:39:01.932Z,1.40
2022-08-23T05:40:05.571Z,1.80
2022-08-23T05:41:14.313Z,1.70
2022-08-23T05:42:16.592Z,1.60
2022-08-23T05:43:19.533Z,1.63
2022-08-23T05:44:21.473Z,1.52
2022-08-23T05:45:22.973Z,1.60
2022-08-23T05:46:28.496Z,1.77
2022-08-23T05:47:47.477Z,1.63
2022-08-23T05:48:57.938Z,1.55
2022-08-23T05:49:59.386Z,1.50
2022-08-23T05:51:24.362Z,1.70
2022-08-23T05:52:26.391Z,1.75
2022-08-23T05:53:27.735Z,1.52
2022-08-23T05:54:29.167Z,1.52
2022-08-23T05:55:49.013Z,1.83
2022-08-23T05:56:51.985Z,1.50
2022-08-23T05:57:53.385Z,1.48
2022-08-23T05:58:59.993Z,1.52
2022-08-23T06:00:02.315Z,1.80
2022-08-23T06:01:04.735Z,1.50
2022-08-23T06:02:06.267Z,1.33
2022-08-23T06:03:08.635Z,1.83
2022-08-23T06:04:12.418Z,1.70
2022-08-23T06:05:16.276Z,1.85
2022-08-23T06:06:20.163Z,1.70
2022-08-23T06:07:22.100Z,1.50
2022-08-23T06:08:23.627Z,1.50
2022-08-23T06:09:25.339Z,1.85
2022-08-23T06:10:27.170Z,1.75
2022-08-23T06:11:36.399Z,1.50
2022-08-23T06:12:39.199Z,1.65
2022-08-23T06:13:42.026Z,1.40
2022-08-23T06:14:44.258Z,1.27
2022-08-23T06:15:45.780Z,1.65
2022-08-23T06:16:48.200Z,1.80
2022-08-23T06:17:53.895Z,1.70
2022-08-23T06:18:57.637Z,1.40
2022-08-23T06:20:31.699Z,1.67
2022-08-23T06:21:40.124Z,1.63
2022-08-23T06:22:42.072Z,1.95
2022-08-23T06:23:43.966Z,1.73
2022-08-23T06:24:45.388Z,1.40
2022-08-23T06:25:49.477Z,1.50
2022-08-23T06:26:54.008Z,1.70
2022-08-23T06:27:55.410Z,1.70
2022-08-23T06:28:58.758Z,1.58
2022-08-23T06:30:00.178Z,1.60
2022-08-23T06:31:07.610Z,1.75
2022-08-23T06:32:11.771Z,1.55
2022-08-23T06:33:20.798Z,1.40
2022-08-23T06:34:42.120Z,1.23
2022-08-23T06:36:06.646Z,1.77
2022-08-23T06:37:28.273Z,1.95
2022-08-23T06:38:41.941Z,1.70
2022-08-23T06:40:07.025Z,1.48
2022-08-23T06:41:21.099Z,1.70
2022-08-23T06:42:41.251Z,1.80
2022-08-23T06:43:43.701Z,1.50
2022-08-23T06:45:04.115Z,1.73
2022-08-23T06:46:18.231Z,1.52
2022-08-23T06:47:19.928Z,1.52
2022-08-23T06:48:24.694Z,1.60
2022-08-23T06:49:27.651Z,1.60
2022-08-23T06:50:32.513Z,1.83
2022-08-23T06:51:54.259Z,2.00
2022-08-23T06:53:07.104Z,1.60
2022-08-23T06:54:19.280Z,1.65
2022-08-23T06:55:33.090Z,1.45
2022-08-23T06:56:49.870Z,1.60
2022-08-23T06:57:56.093Z,1.58
2022-08-23T06:59:24.022Z,2.10
2022-08-23T07:00:36.574Z,1.50
2022-08-23T07:01:51.042Z,1.70
2022-08-23T07:02:56.202Z,1.77
2022-08-23T07:04:34.377Z,1.67
2022-08-23T07:05:44.649Z,1.98
2022-08-23T07:06:59.008Z,1.70
2022-08-23T07:08:00.348Z,1.83
2022-08-23T07:09:01.768Z,2.50
2022-08-23T07:10:03.325Z,1.90
2022-08-23T07:11:04.790Z,2.05
2022-08-23T07:12:06.574Z,1.90
2022-08-23T07:13:08.519Z,1.60
2022-08-23T07:14:14.922Z,1.80
2022-08-23T07:15:16.526Z,2.00
2022-08-23T07:16:19.894Z,1.75
2022-08-23T07:17:21.293Z,1.80
2022-08-23T07:18:23.757Z,1.83
2022-08-23T07:19:29.996Z,1.67
2022-08-23T07:20:31.682Z,1.48
2022-08-23T07:21:33.410Z,1.88
2022-08-23T07:22:34.907Z,1.88
2022-08-23T07:23:36.400Z,1.90
2022-08-23T07:24:40.292Z,2.22
2022-08-23T07:25:41.767Z,2.40
2022-08-23T07:26:47.453Z,2.20
2022-08-23T07:27:48.796Z,1.92
2022-08-23T07:28:53.941Z,1.77
2022-08-23T07:29:55.512Z,2.05
2022-08-23T07:31:06.197Z,2.17
2022-08-23T07:32:18.620Z,1.60
2022-08-23T07:33:22.487Z,1.80
2022-08-23T07:34:44.797Z,1.90
2022-08-23T07:35:47.191Z,1.83
2022-08-23T07:36:50.291Z,1.80
2022-08-23T07:37:52.233Z,1.70
2022-08-23T07:38:54.303Z,1.80
2022-08-23T07:39:58.559Z,2.10
2022-08-23T07:41:01.012Z,2.20
2022-08-23T07:42:22.103Z,2.30
2022-08-23T07:43:25.830Z,2.33
2022-08-23T07:44:28.120Z,2.15
2022-08-23T07:45:29.523Z,2.05
2022-08-23T07:46:34.868Z,2.00
2022-08-23T07:47:37.576Z,2.00
2022-08-23T07:48:54.057Z,1.65
2022-08-23T07:49:58.983Z,2.05
2022-08-23T07:51:02.314Z,2.20
2022-08-23T07:52:04.161Z,2.17
2022-08-23T07:53:05.779Z,1.95
2022-08-23T07:54:09.349Z,1.90
2022-08-23T07:55:18.781Z,2.20
2022-08-23T07:56:37.386Z,2.00
2022-08-23T07:57:48.676Z,2.30
2022-08-23T07:59:09.571Z,2.55
2022-08-23T08:00:15.713Z,2.63
2022-08-23T08:01:29.542Z,2.72
2022-08-23T08:02:30.992Z,2.80
2022-08-23T08:03:33.141Z,2.50
2022-08-23T08:04:45.385Z,2.33
2022-08-23T08:05:47.189Z,2.30
2022-08-23T08:07:04.857Z,2.35
2022-08-23T08:08:13.287Z,2.20
2022-08-23T08:09:15.425Z,2.38
2022-08-23T08:10:17.028Z,2.55
2022-08-23T08:11:20.755Z,2.00
2022-08-23T08:12:23.208Z,2.30
2022-08-23T08:13:26.520Z,2.45
2022-08-23T08:14:28.221Z,2.08
2022-08-23T08:15:32.059Z,2.30
2022-08-23T08:16:45.521Z,2.17
2022-08-23T08:17:51.477Z,2.22
2022-08-23T08:18:56.128Z,2.33
2022-08-23T08:20:28.155Z,2.00
2022-08-23T08:21:48.721Z,1.95
2022-08-23T08:23:22.315Z,2.20
2022-08-23T08:24:44.973Z,2.50
2022-08-23T08:25:47.643Z,2.33
2022-08-23T08:26:52.217Z,2.17
2022-08-23T08:27:54.713Z,2.22
2022-08-23T08:28:56.470Z,2.00
2022-08-23T08:29:58.916Z,2.50
2022-08-23T08:31:00.500Z,2.17
2022-08-23T08:32:02.045Z,2.20
2022-08-23T08:33:03.676Z,2.17
2022-08-23T08:34:07.751Z,1.85
2022-08-23T08:35:10.104Z,2.30
2022-08-23T08:36:30.680Z,2.08
2022-08-23T08:37:32.765Z,1.88
2022-08-23T08:38:47.816Z,2.08
2022-08-23T08:39:49.634Z,2.30
2022-08-23T08:41:00.920Z,2.00
2022-08-23T08:42:08.451Z,2.17
2022-08-23T08:43:20.145Z,1.90
2022-08-23T08:44:34.469Z,2.10
2022-08-23T08:45:45.615Z,2.13
2022-08-23T08:47:01.065Z,2.15
2022-08-23T08:48:10.144Z,2.10
2022-08-23T08:49:33.970Z,2.33
2022-08-23T08:50:53.563Z,1.83
2022-08-23T08:51:58.736Z,2.28
2022-08-23T08:53:00.087Z,2.33
2022-08-23T08:54:20.872Z,2.10
2022-08-23T08:55:26.077Z,2.60
2022-08-23T08:56:33.009Z,2.08
2022-08-23T08:57:55.278Z,2.20
2022-08-23T08:59:02.170Z,2.55
2022-08-23T09:00:09.033Z,2.00
2022-08-23T09:01:12.747Z,2.10
2022-08-23T09:02:32.002Z,2.50
2022-08-23T09:03:36.972Z,2.47
2022-08-23T09:04:38.809Z,2.40
2022-08-23T09:05:47.909Z,2.67
2022-08-23T09:06:49.409Z,2.50
2022-08-23T09:08:03.141Z,2.33
2022-08-23T09:09:24.423Z,2.50
2022-08-23T09:10:58.160Z,2.30
2022-08-23T09:14:00.432Z,1.98
2022-08-23T09:15:04.486Z,2.40
2022-08-23T09:16:09.195Z,2.13
2022-08-23T09:17:29.851Z,2.58
2022-08-23T09:18:35.247Z,2.30
2022-08-23T09:19:38.105Z,2.38
2022-08-23T09:20:40.929Z,2.22
2022-08-23T09:21:47.433Z,2.15
2022-08-23T09:22:51.360Z,2.50
2022-08-23T09:24:01.411Z,2.70
2022-08-23T09:25:25.015Z,2.42
2022-08-23T09:26:33.515Z,2.40
2022-08-23T09:27:36.217Z,2.42
2022-08-23T09:28:37.984Z,2.38
2022-08-23T09:29:51.077Z,2.35
2022-08-23T09:30:55.641Z,1.92
2022-08-23T09:32:06.606Z,2.30
2022-08-23T09:33:20.951Z,2.40
2022-08-23T09:34:36.004Z,2.15
2022-08-23T09:35:44.568Z,2.30
2022-08-23T09:36:52.128Z,2.40
2022-08-23T09:37:54.599Z,2.45
2022-08-23T09:38:58.752Z,2.30
2022-08-23T09:40:16.435Z,2.60
2022-08-23T09:41:22.231Z,2.78
2022-08-23T09:42:29.741Z,2.60
2022-08-23T09:43:42.582Z,2.55
2022-08-23T09:44:44.613Z,2.40
2022-08-23T09:45:48.248Z,2.30
2022-08-23T09:46:50.033Z,2.40
2022-08-23T09:47:54.432Z,2.40
2022-08-23T09:48:59.062Z,2.28
2022-08-23T09:50:15.626Z,2.35
2022-08-23T09:51:29.774Z,2.55
2022-08-23T09:52:37.538Z,2.35
2022-08-23T09:53:41.422Z,2.60
2022-08-23T09:54:47.522Z,2.25
2022-08-23T09:55:54.705Z,2.50
2022-08-23T09:56:58.304Z,2.40
2022-08-23T09:58:01.243Z,2.60
2022-08-23T09:59:03.470Z,2.67
2022-08-23T10:00:16.745Z,2.42
2022-08-23T10:01:23.717Z,2.50
2022-08-23T10:02:35.620Z,2.20
2022-08-23T10:03:46.238Z,2.70
2022-08-23T10:04:58.015Z,2.38
2022-08-23T10:06:00.930Z,2.80
2022-08-23T10:07:21.104Z,2.60
2022-08-23T10:08:24.102Z,2.05
2022-08-23T10:09:27.724Z,2.80
2022-08-23T10:10:33.025Z,2.50
2022-08-23T10:11:40.741Z,2.30
2022-08-23T10:12:43.720Z,2.83
2022-08-23T10:13:46.014Z,2.80
2022-08-23T10:14:48.105Z,2.47
2022-08-23T10:15:56.005Z,2.33
2022-08-23T10:17:08.228Z,2.30
2022-08-23T10:18:18.962Z,2.55
2022-08-23T10:19:39.958Z,2.60
2022-08-23T10:20:51.303Z,2.40
2022-08-23T10:22:13.044Z,2.50
2022-08-23T10:23:35.474Z,2.60
2022-08-23T10:24:45.606Z,2.53
2022-08-23T10:25:53.508Z,2.50
2022-08-23T10:27:02.513Z,2.38
2022-08-23T10:28:28.478Z,2.40
2022-08-23T10:29:43.176Z,2.83
2022-08-23T10:30:45.238Z,2.45
2022-08-23T10:31:59.402Z,2.72
2022-08-23T10:33:07.664Z,2.40
2022-08-23T10:34:34.732Z,2.45
2022-08-23T10:35:45.980Z,2.63
2022-08-23T10:36:54.619Z,2.60
2022-08-23T10:38:15.243Z,2.38
2022-08-23T10:39:21.087Z,2.53
2022-08-23T10:40:28.896Z,2.80
2022-08-23T10:41:33.662Z,2.55
2022-08-23T10:43:02.082Z,2.30
2022-08-23T10:44:03.414Z,2.67
2022-08-23T10:45:15.908Z,2.38
2022-08-23T10:46:17.700Z,2.28
2022-08-23T10:47:37.490Z,2.22
2022-08-23T10:48:50.067Z,2.58
2022-08-23T10:49:56.609Z,2.50
2022-08-23T10:51:00.795Z,2.30
2022-08-23T10:52:03.175Z,2.60
2022-08-23T10:53:08.780Z,2.40
2022-08-23T10:54:15.998Z,2.80
2022-08-23T10:55:39.284Z,2.30
2022-08-23T10:56:50.269Z,2.45
2022-08-23T10:57:53.337Z,2.70
2022-08-23T10:58:57.044Z,2.45
2022-08-23T10:59:59.187Z,2.10
2022-08-23T11:01:01.473Z,2.70
2022-08-23T11:02:13.580Z,2.75
2022-08-23T11:03:29.801Z,2.40
2022-08-23T11:04:39.532Z,3.00
2022-08-23T11:06:15.208Z,2.72
2022-08-23T11:07:18.707Z,2.30
2022-08-23T11:08:33.759Z,2.40
2022-08-23T11:09:46.575Z,2.60
2022-08-23T11:10:56.207Z,2.63
2022-08-23T11:12:19.768Z,2.50
2022-08-23T11:13:25.542Z,2.45
2022-08-23T11:14:45.619Z,2.15
2022-08-23T11:15:55.764Z,2.47
2022-08-23T11:17:07.740Z,2.33
2022-08-23T11:18:10.884Z,2.13
2022-08-23T11:19:17.243Z,2.13
2022-08-23T11:20:38.237Z,2.42
2022-08-23T11:21:40.775Z,1.80
2022-08-23T11:22:56.624Z,2.25
2022-08-23T11:23:58.442Z,2.05
2022-08-23T11:25:26.948Z,2.10
2022-08-23T11:26:36.073Z,1.98
2022-08-23T11:27:39.262Z,2.40
2022-08-23T11:28:44.903Z,2.42
2022-08-23T11:29:46.606Z,2.55
2022-08-23T11:31:07.710Z,1.77
2022-08-23T11:32:21.152Z,2.17
2022-08-23T11:33:41.293Z,2.08
2022-08-23T11:34:48.248Z,2.13
2022-08-23T11:35:55.206Z,2.22
2022-08-23T11:37:16.252Z,2.10
2022-08-23T11:38:37.559Z,2.10
2022-08-23T11:39:57.776Z,2.22
2022-08-23T11:41:10.975Z,2.30
2022-08-23T11:42:18.188Z,1.95
2022-08-23T11:43:24.592Z,1.90
2022-08-23T11:44:38.314Z,2.03
2022-08-23T11:45:44.309Z,2.10
2022-08-23T11:46:55.760Z,1.90
2022-08-23T11:48:16.061Z,1.98
2022-08-23T11:49:26.704Z,2.40
2022-08-23T11:50:34.529Z,2.08
2022-08-23T11:51:51.209Z,2.42
2022-08-23T11:53:09.409Z,1.98
2022-08-23T11:54:23.127Z,2.00
2022-08-23T11:55:43.522Z,2.35
2022-08-23T11:56:55.213Z,2.13
2022-08-23T11:58:02.502Z,2.10
2022-08-23T11:59:16.273Z,2.05
2022-08-23T12:00:27.769Z,2.10
2022-08-23T12:01:33.792Z,2.22
2022-08-23T12:02:38.301Z,1.95
2022-08-23T12:03:52.382Z,1.98
2022-08-23T12:04:55.608Z,2.30
2022-08-23T12:06:04.373Z,2.20
2022-08-23T12:07:12.699Z,2.60
2022-08-23T12:08:17.115Z,2.17
2022-08-23T12:09:24.341Z,2.00
2022-08-23T12:10:40.733Z,1.80
2022-08-23T12:11:57.414Z,2.03
2022-08-23T12:13:17.721Z,2.10
2022-08-23T12:14:31.289Z,1.90
2022-08-23T12:15:51.190Z,2.10
2022-08-23T12:16:56.712Z,1.77
2022-08-23T12:18:06.814Z,2.17
2022-08-23T12:19:09.927Z,2.15
2022-08-23T12:20:22.601Z,1.92
2022-08-23T12:21:26.499Z,2.10
2022-08-23T12:22:29.887Z,2.10
2022-08-23T12:23:31.961Z,2.28
2022-08-23T12:24:41.386Z,2.00
2022-08-23T12:25:42.852Z,1.90
2022-08-23T12:26:47.235Z,2.05
2022-08-23T12:28:08.840Z,1.92
2022-08-23T12:29:24.956Z,2.13
2022-08-23T12:30:33.778Z,2.00
2022-08-23T12:31:37.998Z,1.85
2022-08-23T12:32:48.282Z,2.13
2022-08-23T12:33:52.653Z,2.15
2022-08-23T12:35:06.392Z,2.05
2022-08-23T12:36:17.308Z,1.90
2022-08-23T12:37:40.834Z,2.08
2022-08-23T12:39:09.265Z,1.67
2022-08-23T12:40:13.781Z,2.00
2022-08-23T12:41:23.457Z,1.90
2022-08-23T12:42:30.351Z,2.08
2022-08-23T12:43:32.113Z,2.25
2022-08-23T12:44:34.277Z,1.83
2022-08-23T12:45:40.859Z,2.13
2022-08-23T12:46:43.765Z,2.25
2022-08-23T12:47:55.264Z,2.00
2022-08-23T12:48:57.057Z,2.00
2022-08-23T12:50:01.963Z,1.98
2022-08-23T12:51:07.330Z,2.10
2022-08-23T12:52:11.797Z,2.28
2022-08-23T12:53:14.488Z,2.00
2022-08-23T12:54:17.367Z,1.90
2022-08-23T12:55:30.444Z,2.08
2022-08-23T12:56:32.884Z,1.98
2022-08-23T12:57:39.682Z,2.00
2022-08-23T12:58:46.082Z,2.00
2022-08-23T12:59:50.448Z,1.90
2022-08-23T13:00:52.005Z,1.88
2022-08-23T13:01:54.044Z,1.88
2022-08-23T13:02:58.919Z,2.03
2022-08-23T13:04:06.164Z,2.08
2022-08-23T13:05:19.320Z,1.80
2022-08-23T13:06:26.462Z,1.90
2022-08-23T13:07:29.275Z,1.83
2022-08-23T13:08:34.838Z,1.77
2022-08-23T13:09:41.147Z,1.80
2022-08-23T13:10:44.049Z,2.10
2022-08-23T13:11:46.106Z,1.77
2022-08-23T13:12:47.935Z,1.90
2022-08-23T13:13:52.283Z,1.80
2022-08-23T13:14:55.168Z,1.80
2022-08-23T13:15:58.290Z,1.80
2022-08-23T13:17:18.749Z,1.73
2022-08-23T13:18:24.740Z,1.80
2022-08-23T13:19:29.356Z,2.05
2022-08-23T13:20:31.444Z,1.90
2022-08-23T13:21:38.239Z,2.17
2022-08-23T13:22:59.078Z,1.92
2022-08-23T13:24:20.612Z,2.03
2022-08-23T13:25:32.821Z,1.92
2022-08-23T13:26:37.183Z,2.30
2022-08-23T13:27:44.392Z,1.80
2022-08-23T13:29:00.671Z,1.63
2022-08-23T13:30:05.581Z,1.70
2022-08-23T13:31:08.572Z,1.98
2022-08-23T13:32:23.802Z,2.00
2022-08-23T13:33:28.929Z,1.95
2022-08-23T13:34:48.735Z,1.85
2022-08-23T13:35:51.107Z,1.77
2022-08-23T13:36:52.635Z,2.00
2022-08-23T13:37:57.091Z,1.92
2022-08-23T13:39:04.423Z,1.65
2022-08-23T13:40:07.685Z,1.65
2022-08-23T13:41:26.477Z,1.67
2022-08-23T13:42:36.969Z,1.63
2022-08-23T13:43:44.471Z,2.30
2022-08-23T13:44:45.835Z,1.83
2022-08-23T13:45:50.045Z,1.77
2022-08-23T13:46:51.480Z,1.80
2022-08-23T13:47:55.679Z,1.48
2022-08-23T13:49:12.897Z,1.70
2022-08-23T13:50:16.711Z,1.85
2022-08-23T13:51:24.058Z,1.52
2022-08-23T13:53:47.219Z,2.17
2022-08-23T13:54:51.274Z,2.30
2022-08-23T13:55:55.103Z,1.63
2022-08-23T13:56:59.137Z,1.70
2022-08-23T13:58:00.485Z,1.90
2022-08-23T13:59:04.598Z,1.80
2022-08-23T14:00:09.430Z,1.58
2022-08-23T14:01:17.094Z,2.00
2022-08-23T14:02:19.223Z,1.80
2022-08-23T14:03:20.548Z,1.80
2022-08-23T14:04:22.159Z,1.60
2022-08-23T14:05:24.486Z,1.75
2022-08-23T14:06:25.846Z,1.50
2022-08-23T14:07:27.243Z,1.83
2022-08-23T14:08:28.569Z,1.83
2022-08-23T14:09:29.991Z,2.10
2022-08-23T14:10:31.355Z,1.48
2022-08-23T14:11:33.481Z,1.60
2022-08-23T14:12:35.799Z,1.95
2022-08-23T14:13:37.548Z,1.50
2022-08-23T14:14:38.944Z,1.73
2022-08-23T14:15:58.913Z,1.50
2022-08-23T14:17:03.269Z,1.73
2022-08-23T14:18:04.737Z,1.70
2022-08-23T14:20:33.426Z,1.80
2022-08-23T14:21:46.680Z,1.67
2022-08-23T14:22:48.057Z,1.88
2022-08-23T14:23:49.467Z,1.60
2022-08-23T14:24:50.785Z,1.70
2022-08-23T14:25:55.032Z,1.80
2022-08-23T14:26:57.175Z,1.83
2022-08-23T14:27:58.820Z,1.60
2022-08-23T14:29:00.850Z,1.60
2022-08-23T14:30:05.139Z,1.55
2022-08-23T14:31:06.523Z,1.85
2022-08-23T14:32:07.888Z,1.60
2022-08-23T14:33:09.234Z,1.70
2022-08-23T14:34:10.546Z,1.70
2022-08-23T14:35:11.880Z,1.70
2022-08-23T14:36:13.795Z,1.67
2022-08-23T14:38:36.993Z,1.73
2022-08-23T14:39:38.352Z,1.98
2022-08-23T14:40:39.681Z,1.50
2022-08-23T14:41:41.100Z,1.63
2022-08-23T14:42:42.780Z,1.85
2022-08-23T14:43:44.117Z,1.52
2022-08-23T14:44:45.535Z,1.42
2022-08-23T14:45:47.277Z,1.80
2022-08-23T14:46:48.720Z,1.80
2022-08-23T14:47:50.030Z,1.98
2022-08-23T14:48:51.416Z,1.80
2022-08-23T14:49:54.058Z,1.58
2022-08-23T14:50:57.276Z,1.38
2022-08-23T14:51:58.687Z,1.80
2022-08-23T14:53:02.617Z,1.60
2022-08-23T14:54:05.277Z,2.05
2022-08-23T14:55:07.279Z,1.88